createdAt,value
2019-06-08T00:00:42.019Z,1.00
2019-06-08T00:05:44.284Z,1.07
2019-06-08T00:10:46.576Z,1.12
2019-06-08T00:15:48.920Z,0.95
2019-06-08T00:20:51.348Z,1.60
2019-06-08T00:25:54.905Z,1.30
2019-06-08T00:30:57.203Z,0.82
2019-06-08T00:35:59.490Z,1.00
2019-06-08T00:41:01.768Z,1.00
2019-06-08T00:46:04.039Z,1.00
2019-06-08T00:51:06.306Z,1.07
2019-06-08T00:56:09.048Z,0.88
2019-06-08T01:01:11.319Z,1.10
2019-06-08T01:06:13.598Z,1.12
2019-06-08T01:11:15.890Z,1.17
2019-06-08T01:16:18.839Z,1.00
2019-06-08T01:21:21.337Z,1.02
2019-06-08T01:26:23.961Z,0.95
2019-06-08T01:31:26.654Z,0.95
2019-06-08T01:36:29.202Z,0.72
2019-06-08T01:41:31.794Z,1.00
2019-06-08T01:46:34.170Z,1.00
2019-06-08T01:51:36.483Z,1.30
2019-06-08T01:56:38.862Z,1.07
2019-06-08T02:01:41.763Z,1.10
2019-06-08T02:06:44.039Z,1.00
2019-06-08T02:11:46.307Z,1.05
2019-06-08T02:16:48.724Z,1.02
2019-06-08T02:21:50.984Z,1.27
2019-06-08T02:26:53.273Z,0.82
2019-06-08T02:31:55.622Z,1.12
2019-06-08T02:36:58.176Z,1.37
2019-06-08T02:42:00.506Z,1.20
2019-06-08T02:47:02.867Z,1.20
2019-06-08T02:52:05.282Z,1.10
2019-06-08T02:57:07.619Z,1.00
2019-06-08T03:02:10.453Z,1.37
2019-06-08T03:07:14.291Z,1.10
2019-06-08T03:12:17.203Z,1.60
2019-06-08T03:17:19.542Z,1.50
2019-06-08T03:22:21.833Z,1.27
2019-06-08T03:27:24.153Z,1.20
2019-06-08T03:32:26.501Z,1.20
2019-06-08T03:37:28.898Z,1.30
2019-06-08T03:42:31.174Z,1.45
2019-06-08T03:47:34.526Z,1.42
2019-06-08T03:52:37.799Z,1.00
2019-06-08T03:57:42.161Z,1.40
2019-06-08T04:02:46.640Z,1.20
2019-06-08T04:07:50.504Z,1.32
2019-06-08T04:12:52.552Z,1.22
2019-06-08T04:17:54.819Z,1.10
2019-06-08T04:22:57.080Z,1.62
2019-06-08T04:27:59.381Z,1.70
2019-06-08T04:33:10.126Z,1.70
2019-06-08T04:38:12.532Z,1.65
2019-06-08T04:43:14.838Z,2.08
2019-06-08T04:48:17.147Z,1.85
2019-06-08T04:53:19.552Z,1.60
2019-06-08T04:58:21.849Z,2.02
2019-06-08T05:03:24.394Z,1.80
2019-06-08T05:08:26.679Z,1.90
2019-06-08T05:13:28.953Z,1.97
2019-06-08T05:18:31.223Z,2.00
2019-06-08T05:23:33.488Z,2.17
2019-06-08T05:28:35.772Z,2.30
2019-06-08T05:33:39.178Z,2.15
2019-06-08T05:38:41.623Z,2.40
2019-06-08T05:43:43.855Z,1.60
2019-06-08T05:48:47.938Z,2.72
2019-06-08T05:53:50.344Z,2.12
2019-06-08T05:58:52.640Z,1.72
2019-06-08T06:03:55.033Z,2.30
2019-06-08T06:08:57.364Z,1.87
2019-06-08T06:13:59.655Z,2.10
2019-06-08T06:19:02.009Z,1.82
2019-06-08T06:24:04.695Z,2.83
2019-06-08T06:29:06.974Z,2.00
2019-06-08T06:34:09.278Z,1.85
2019-06-08T06:39:11.727Z,2.10
2019-06-08T06:44:14.265Z,2.00
2019-06-08T06:49:16.590Z,2.00
2019-06-08T06:54:18.983Z,2.05
2019-06-08T06:59:22.639Z,1.98
2019-06-08T07:04:25.063Z,2.30
2019-06-08T07:09:27.674Z,2.10
2019-06-08T07:14:29.963Z,2.10
2019-06-08T07:19:32.223Z,3.15
2019-06-08T07:24:34.498Z,1.98
2019-06-08T07:29:37.289Z,2.00
2019-06-08T07:34:41.224Z,1.70
2019-06-08T07:39:43.763Z,2.10
2019-06-08T07:44:46.859Z,1.90
2019-06-08T07:49:49.353Z,2.08
2019-06-08T07:54:52.885Z,2.20
2019-06-08T07:59:57.089Z,1.90
2019-06-08T08:04:59.578Z,2.00
2019-06-08T08:10:02.213Z,2.27
2019-06-08T08:15:05.718Z,2.10
2019-06-08T08:20:11.425Z,2.33
2019-06-08T08:25:18.227Z,2.30
2019-06-08T08:30:20.490Z,2.20
2019-06-08T08:35:22.871Z,2.17
2019-06-08T08:40:25.143Z,1.98
2019-06-08T08:45:27.660Z,1.90
2019-06-08T08:50:30.093Z,2.00
2019-06-08T08:55:34.274Z,1.97
2019-06-08T09:00:38.286Z,1.70
2019-06-08T09:05:40.780Z,2.00
2019-06-08T09:10:43.082Z,1.82
2019-06-08T09:15:47.833Z,1.72
2019-06-08T09:20:49.779Z,1.87
2019-06-08T09:25:54.617Z,1.90
2019-06-08T09:30:59.039Z,1.77
2019-06-08T09:36:02.826Z,2.17
2019-06-08T09:41:05.487Z,1.60
2019-06-08T09:46:09.349Z,2.00
2019-06-08T09:51:12.074Z,1.70
2019-06-08T09:56:14.403Z,1.95
2019-06-08T10:01:18.468Z,1.80
2019-06-08T10:06:20.703Z,1.40
2019-06-08T10:11:23.035Z,1.75
2019-06-08T10:16:27.987Z,1.75
2019-06-08T10:21:29.649Z,1.53
2019-06-08T10:26:31.977Z,1.72
2019-06-08T10:31:39.858Z,1.75
2019-06-08T10:36:38.458Z,1.70
2019-06-08T10:41:40.813Z,1.90
2019-06-08T10:46:43.119Z,2.17
2019-06-08T10:51:45.529Z,1.50
2019-06-08T10:56:48.619Z,1.57
2019-06-08T11:01:51.071Z,1.70
2019-06-08T11:06:53.466Z,1.50
2019-06-08T11:11:58.034Z,1.50
2019-06-08T11:17:00.641Z,1.40
2019-06-08T11:22:07.399Z,1.98
2019-06-08T11:27:11.167Z,1.67
2019-06-08T11:32:12.624Z,1.60
2019-06-08T11:37:20.370Z,1.45
2019-06-08T11:42:19.385Z,1.70
2019-06-08T11:47:21.728Z,1.70
2019-06-08T11:52:25.790Z,2.22
2019-06-08T11:57:28.369Z,1.77
2019-06-08T12:02:30.743Z,2.25
2019-06-08T12:07:33.088Z,2.00
2019-06-08T12:12:35.450Z,1.60
2019-06-08T12:17:37.728Z,2.12
2019-06-08T12:22:40.236Z,1.77
2019-06-08T12:27:42.790Z,1.57
2019-06-08T12:32:45.231Z,1.50
2019-06-08T12:37:48.366Z,1.90
2019-06-08T12:42:51.541Z,1.60
2019-06-08T12:47:53.814Z,1.60
2019-06-08T12:52:58.347Z,1.80
2019-06-08T12:58:00.218Z,1.80
2019-06-08T13:03:02.786Z,1.70
2019-06-08T13:08:05.069Z,1.10
2019-06-08T13:13:08.409Z,1.95
2019-06-08T13:18:12.320Z,1.57
2019-06-08T13:23:15.384Z,1.95
2019-06-08T13:28:23.608Z,1.25
2019-06-08T13:33:21.964Z,1.37
2019-06-08T13:38:24.248Z,1.40
2019-06-08T13:43:26.604Z,1.35
2019-06-08T13:48:28.954Z,1.72
2019-06-08T13:53:31.924Z,1.50
2019-06-08T13:58:34.319Z,1.35
2019-06-08T14:03:36.615Z,1.50
2019-06-08T14:08:39.078Z,1.62
2019-06-08T14:13:42.069Z,1.30
2019-06-08T14:18:44.377Z,1.50
2019-06-08T14:23:48.407Z,1.47
2019-06-08T14:28:51.278Z,1.55
2019-06-08T14:33:53.675Z,1.57
2019-06-08T14:39:00.706Z,1.50
2019-06-08T14:44:00.005Z,1.50
2019-06-08T14:49:02.757Z,1.45
2019-06-08T14:54:05.077Z,1.65
2019-06-08T14:59:08.197Z,1.60
2019-06-08T15:04:10.700Z,1.77
2019-06-08T15:09:13.292Z,1.65
2019-06-08T15:14:15.563Z,1.70
2019-06-08T15:19:18.401Z,1.50
2019-06-08T15:24:20.863Z,1.67
2019-06-08T15:29:24.875Z,1.90
2019-06-08T15:34:29.578Z,1.48
2019-06-08T15:39:33.663Z,1.60
2019-06-08T15:44:38.315Z,1.80
2019-06-08T15:49:40.373Z,1.60
2019-06-08T15:54:42.685Z,1.82
2019-06-08T15:59:45.040Z,1.58
2019-06-08T16:04:47.313Z,1.90
2019-06-08T16:09:49.728Z,1.50
2019-06-08T16:14:52.087Z,1.47
2019-06-08T16:19:54.414Z,1.50
2019-06-08T16:24:56.719Z,1.70
2019-06-08T16:29:58.963Z,1.50
2019-06-08T16:35:01.340Z,2.33
2019-06-08T16:40:05.251Z,1.17
2019-06-08T16:45:07.719Z,1.60
2019-06-08T16:50:23.249Z,2.37
2019-06-08T16:55:14.361Z,1.50
2019-06-08T17:00:30.793Z,1.50
2019-06-08T17:05:20.872Z,1.70
2019-06-08T17:10:23.230Z,2.10
2019-06-08T17:15:25.529Z,1.55
2019-06-08T17:20:27.808Z,2.30
2019-06-08T17:25:30.364Z,1.70
2019-06-08T17:30:33.893Z,2.10
2019-06-08T17:35:37.620Z,1.90
2019-06-08T17:40:40.329Z,1.75
2019-06-08T17:45:43.016Z,2.08
2019-06-08T17:50:45.518Z,1.75
2019-06-08T17:55:48.118Z,2.60
2019-06-08T18:00:50.422Z,2.50
2019-06-08T18:05:52.718Z,1.57
2019-06-08T18:10:57.436Z,1.98
2019-06-08T18:15:59.511Z,1.67
2019-06-08T18:21:01.799Z,1.50
2019-06-08T18:26:04.143Z,1.65
2019-06-08T18:31:07.515Z,1.75
2019-06-08T18:36:09.992Z,1.50
2019-06-08T18:41:12.292Z,1.92
2019-06-08T18:46:14.672Z,2.33
2019-06-08T18:51:17.474Z,2.85
2019-06-08T18:56:20.503Z,2.37
2019-06-08T19:01:23.906Z,2.00
2019-06-08T19:06:27.845Z,1.95
2019-06-08T19:11:30.632Z,1.90
2019-06-08T19:16:33.680Z,2.00
2019-06-08T19:21:38.064Z,2.15
2019-06-08T19:26:43.181Z,2.00
2019-06-08T19:31:50.002Z,2.47
2019-06-08T19:36:54.193Z,2.47
2019-06-08T19:41:57.177Z,2.55
2019-06-08T19:46:59.527Z,2.27
2019-06-08T19:52:02.280Z,2.00
2019-06-08T19:57:04.668Z,1.90
2019-06-08T20:02:08.625Z,2.30
2019-06-08T20:07:11.232Z,2.60
2019-06-08T20:12:14.216Z,2.47
2019-06-08T20:17:19.435Z,3.00
2019-06-08T20:22:22.054Z,2.65
2019-06-08T20:27:24.352Z,2.98
2019-06-08T20:32:28.186Z,2.50
2019-06-08T20:37:31.316Z,2.37
2019-06-08T20:42:33.642Z,2.03
2019-06-08T20:47:36.797Z,2.17
2019-06-08T20:52:40.084Z,1.90
2019-06-08T20:57:43.112Z,2.40
2019-06-08T21:02:46.455Z,2.20
2019-06-08T21:07:52.495Z,1.87
2019-06-08T21:12:55.490Z,2.08
2019-06-08T21:17:57.657Z,1.92
2019-06-08T21:23:00.092Z,1.80
2019-06-08T21:28:02.452Z,2.17
2019-06-08T21:33:04.728Z,2.40
2019-06-08T21:38:20.193Z,2.90
2019-06-08T21:43:11.135Z,1.87
2019-06-08T21:48:13.557Z,2.20
2019-06-08T21:53:17.996Z,2.40
2019-06-08T21:58:19.884Z,2.83
2019-06-08T22:03:22.218Z,2.90
2019-06-08T22:08:24.613Z,2.80
2019-06-08T22:13:28.254Z,2.95
2019-06-08T22:18:30.933Z,3.10
2019-06-08T22:23:33.258Z,2.90
2019-06-08T22:28:37.569Z,2.65
2019-06-08T22:33:39.734Z,2.44
2019-06-08T22:38:42.097Z,2.50
2019-06-08T22:43:44.368Z,2.15
2019-06-08T22:48:47.834Z,2.20
2019-06-08T22:53:50.219Z,6.67
2019-06-08T22:58:54.250Z,2.27
2019-06-08T23:03:59.367Z,2.35
2019-06-08T23:09:02.504Z,2.70
2019-06-08T23:14:10.331Z,2.70
2019-06-08T23:19:08.653Z,2.50
2019-06-08T23:24:10.942Z,2.70
2019-06-08T23:29:13.212Z,2.50
2019-06-08T23:34:15.487Z,3.00
2019-06-08T23:39:18.086Z,2.65
2019-06-08T23:44:20.527Z,4.15
2019-06-08T23:49:22.893Z,3.02
2019-06-08T23:54:27.815Z,2.60
2019-06-08T23:59:29.593Z,3.00
